createdAt,value
2018-09-26T00:01:20.066Z,9.60
2018-09-26T00:03:47.648Z,9.60
2018-09-26T00:06:15.177Z,9.60
2018-09-26T00:08:42.751Z,9.70
2018-09-26T00:11:10.292Z,9.70
2018-09-26T00:13:37.869Z,9.70
2018-09-26T00:16:05.408Z,9.70
2018-09-26T00:18:32.983Z,9.80
2018-09-26T00:21:01.489Z,9.60
2018-09-26T00:23:29.050Z,9.20
2018-09-26T00:25:57.350Z,8.60
2018-09-26T00:28:25.906Z,8.60
2018-09-26T00:30:53.478Z,8.60
2018-09-26T00:33:21.052Z,8.60
2018-09-26T00:35:48.641Z,8.30
2018-09-26T00:38:16.167Z,8.30
2018-09-26T00:40:43.752Z,8.30
2018-09-26T00:43:11.283Z,8.20
2018-09-26T00:45:38.857Z,8.10
2018-09-26T00:48:06.404Z,8.00
2018-09-26T00:50:33.969Z,7.70
2018-09-26T00:53:01.519Z,7.70
2018-09-26T00:55:29.095Z,7.50
2018-09-26T00:57:56.646Z,7.40
2018-09-26T01:00:25.138Z,7.40
2018-09-26T01:02:52.709Z,7.30
2018-09-26T01:05:20.285Z,7.20
2018-09-26T01:07:47.862Z,7.20
2018-09-26T01:10:15.398Z,7.30
2018-09-26T01:12:44.905Z,7.10
2018-09-26T01:15:13.249Z,7.00
2018-09-26T01:17:40.804Z,7.00
2018-09-26T01:20:08.975Z,6.90
2018-09-26T01:22:36.514Z,6.90
2018-09-26T01:25:04.079Z,6.80
2018-09-26T01:27:31.615Z,6.80
2018-09-26T01:29:59.196Z,6.80
2018-09-26T01:32:26.765Z,6.80
2018-09-26T01:34:54.346Z,6.80
2018-09-26T01:37:21.877Z,6.80
2018-09-26T01:39:49.415Z,6.80
2018-09-26T01:42:16.988Z,6.70
2018-09-26T01:44:44.521Z,6.70
2018-09-26T01:47:14.076Z,6.70
2018-09-26T01:49:41.610Z,6.70
2018-09-26T01:52:09.173Z,6.80
2018-09-26T01:54:36.713Z,6.80
2018-09-26T01:57:04.277Z,6.70
2018-09-26T01:59:31.806Z,6.70
2018-09-26T02:01:59.371Z,6.60
2018-09-26T02:04:26.910Z,6.70
2018-09-26T02:06:54.486Z,6.60
2018-09-26T02:09:22.061Z,6.60
2018-09-26T02:11:49.627Z,6.70
2018-09-26T02:14:17.173Z,6.60
2018-09-26T02:16:44.753Z,6.40
2018-09-26T02:19:12.334Z,6.50
2018-09-26T02:21:40.628Z,6.50
2018-09-26T02:24:08.209Z,6.50
2018-09-26T02:26:35.746Z,6.40
2018-09-26T02:29:03.313Z,6.40
2018-09-26T02:31:30.850Z,6.30
2018-09-26T02:34:00.358Z,6.20
2018-09-26T02:36:27.894Z,6.20
2018-09-26T02:38:56.234Z,6.10
2018-09-26T02:41:23.779Z,6.10
2018-09-26T02:43:51.371Z,6.20
2018-09-26T02:46:18.913Z,6.20
2018-09-26T02:48:46.485Z,6.30
2018-09-26T02:51:14.018Z,6.20
2018-09-26T02:53:41.555Z,6.20
2018-09-26T02:56:09.129Z,6.10
2018-09-26T02:58:36.757Z,6.20
2018-09-26T03:01:04.329Z,6.10
2018-09-26T03:03:31.894Z,6.10
2018-09-26T03:05:59.437Z,6.00
2018-09-26T03:08:27.012Z,6.00
2018-09-26T03:10:56.551Z,5.90
2018-09-26T03:13:24.097Z,5.90
2018-09-26T03:15:51.630Z,5.80
2018-09-26T03:18:19.206Z,5.80
2018-09-26T03:20:46.773Z,5.80
2018-09-26T03:23:15.307Z,5.80
2018-09-26T03:25:42.857Z,5.70
2018-09-26T03:28:12.416Z,5.70
2018-09-26T03:30:40.758Z,5.70
2018-09-26T03:33:08.328Z,5.60
2018-09-26T03:35:35.871Z,5.40
2018-09-26T03:38:03.441Z,5.40
2018-09-26T03:40:31.049Z,5.20
2018-09-26T03:42:58.624Z,5.20
2018-09-26T03:45:27.096Z,5.10
2018-09-26T03:47:54.668Z,5.10
2018-09-26T03:50:22.206Z,5.10
2018-09-26T03:52:49.787Z,5.00
2018-09-26T03:55:17.357Z,5.00
2018-09-26T03:57:46.875Z,5.10
2018-09-26T04:00:14.414Z,5.10
2018-09-26T04:02:41.978Z,5.20
2018-09-26T04:05:09.555Z,5.10
2018-09-26T04:07:37.095Z,5.10
2018-09-26T04:10:06.590Z,5.20
2018-09-26T04:12:34.218Z,5.20
2018-09-26T04:15:01.751Z,5.00
2018-09-26T04:17:30.055Z,4.90
2018-09-26T04:19:59.575Z,4.80
2018-09-26T04:22:27.121Z,4.70
2018-09-26T04:24:54.694Z,4.70
2018-09-26T04:27:22.364Z,4.70
2018-09-26T04:29:49.840Z,4.70
2018-09-26T04:32:17.402Z,4.80
2018-09-26T04:34:44.977Z,4.80
2018-09-26T04:37:12.522Z,4.80
2018-09-26T04:39:40.866Z,4.90
2018-09-26T04:42:08.399Z,4.90
2018-09-26T04:44:35.975Z,4.90
2018-09-26T04:47:03.520Z,5.00
2018-09-26T04:49:31.086Z,4.90
2018-09-26T04:51:58.632Z,4.90
2018-09-26T04:54:26.201Z,4.80
2018-09-26T04:56:53.739Z,4.80
2018-09-26T04:59:21.307Z,4.70
2018-09-26T05:01:48.843Z,4.70
2018-09-26T05:04:16.416Z,4.70
2018-09-26T05:06:43.959Z,4.70
2018-09-26T05:09:11.520Z,4.70
2018-09-26T05:11:39.056Z,4.80
2018-09-26T05:14:07.384Z,4.70
2018-09-26T05:16:34.921Z,4.60
2018-09-26T05:19:02.481Z,4.60
2018-09-26T05:21:30.016Z,4.50
2018-09-26T05:23:57.599Z,4.50
2018-09-26T05:26:27.206Z,4.50
2018-09-26T05:28:54.789Z,4.50
2018-09-26T05:31:22.333Z,4.50
2018-09-26T05:33:49.866Z,4.50
2018-09-26T05:36:17.445Z,4.50
2018-09-26T05:38:45.956Z,4.40
2018-09-26T05:41:14.285Z,4.50
2018-09-26T05:43:42.790Z,4.40
2018-09-26T05:46:10.369Z,4.50
2018-09-26T05:48:38.884Z,4.60
2018-09-26T05:51:07.434Z,4.60
2018-09-26T05:53:35.818Z,4.60
2018-09-26T05:56:03.326Z,4.60
2018-09-26T05:58:30.856Z,4.50
2018-09-26T06:00:58.423Z,4.50
2018-09-26T06:03:25.945Z,4.50
2018-09-26T06:05:53.518Z,4.60
2018-09-26T06:08:21.054Z,4.60
2018-09-26T06:10:49.589Z,4.70
2018-09-26T06:13:17.118Z,4.70
2018-09-26T06:15:44.683Z,4.80
2018-09-26T06:18:13.202Z,4.90
2018-09-26T06:20:40.773Z,5.00
2018-09-26T06:23:08.293Z,5.10
2018-09-26T06:25:35.867Z,5.10
2018-09-26T06:28:03.407Z,5.20
2018-09-26T06:30:30.969Z,5.20
2018-09-26T06:32:58.510Z,5.40
2018-09-26T06:35:26.067Z,5.60
2018-09-26T06:37:53.625Z,5.70
2018-09-26T06:40:21.229Z,5.90
2018-09-26T06:42:48.765Z,6.00
2018-09-26T06:45:16.849Z,6.10
2018-09-26T06:47:44.414Z,6.30
2018-09-26T06:50:11.954Z,6.70
2018-09-26T06:52:39.521Z,6.90
2018-09-26T06:55:08.166Z,7.00
2018-09-26T06:57:35.699Z,7.20
2018-09-26T07:00:03.305Z,7.40
2018-09-26T07:02:30.874Z,7.60
2018-09-26T07:04:58.439Z,7.60
2018-09-26T07:07:26.014Z,7.70
2018-09-26T07:09:54.318Z,8.10
2018-09-26T07:12:21.890Z,8.00
2018-09-26T07:14:49.433Z,8.20
2018-09-26T07:17:17.005Z,8.30
2018-09-26T07:19:44.543Z,8.50
2018-09-26T07:22:12.145Z,8.60
2018-09-26T07:24:39.704Z,8.90
2018-09-26T07:27:07.271Z,9.00
2018-09-26T07:29:34.806Z,9.20
2018-09-26T07:32:03.369Z,9.30
2018-09-26T07:34:30.923Z,9.50
2018-09-26T07:36:58.506Z,9.50
2018-09-26T07:39:26.034Z,9.60
2018-09-26T07:41:53.605Z,9.80
2018-09-26T07:44:22.098Z,10.00
2018-09-26T07:46:50.638Z,10.00
2018-09-26T07:49:18.182Z,10.10
2018-09-26T07:51:47.490Z,10.50
2018-09-26T07:54:15.022Z,10.50
2018-09-26T07:56:43.353Z,10.70
2018-09-26T07:59:10.901Z,10.70
2018-09-26T08:01:38.468Z,10.70
2018-09-26T08:04:06.003Z,10.60
2018-09-26T08:06:35.527Z,10.60
2018-09-26T08:09:03.061Z,10.80
2018-09-26T08:11:30.642Z,10.80
2018-09-26T08:13:58.198Z,10.90
2018-09-26T08:16:26.546Z,10.90
2018-09-26T08:18:54.077Z,10.90
2018-09-26T08:21:21.613Z,11.20
2018-09-26T08:23:49.268Z,11.40
2018-09-26T08:26:16.779Z,11.60
2018-09-26T08:28:44.313Z,11.70
2018-09-26T08:31:12.616Z,11.70
2018-09-26T08:33:40.190Z,11.70
2018-09-26T08:36:07.725Z,11.90
2018-09-26T08:38:35.297Z,12.10
2018-09-26T08:41:02.830Z,12.10
2018-09-26T08:43:30.396Z,12.20
2018-09-26T08:45:57.935Z,12.10
2018-09-26T08:48:25.512Z,12.20
2018-09-26T08:50:53.045Z,12.30
2018-09-26T08:53:20.637Z,12.10
2018-09-26T08:55:48.178Z,12.10
2018-09-26T08:58:15.741Z,12.20
2018-09-26T09:00:43.284Z,12.30
2018-09-26T09:03:10.860Z,12.30
2018-09-26T09:05:38.397Z,12.30
2018-09-26T09:08:05.981Z,12.50
2018-09-26T09:10:35.424Z,12.30
2018-09-26T09:13:02.984Z,11.90
2018-09-26T09:15:30.512Z,11.90
2018-09-26T09:17:58.199Z,12.00
2018-09-26T09:20:27.586Z,12.20
2018-09-26T09:22:55.149Z,12.50
2018-09-26T09:25:22.693Z,12.70
2018-09-26T09:27:50.252Z,12.90
2018-09-26T09:30:17.825Z,13.00
2018-09-26T09:32:45.385Z,13.20
2018-09-26T09:35:13.888Z,13.20
2018-09-26T09:37:42.213Z,13.10
2018-09-26T09:40:09.770Z,13.00
2018-09-26T09:42:37.317Z,13.20
2018-09-26T09:45:04.885Z,13.40
2018-09-26T09:47:32.440Z,13.50
2018-09-26T09:49:59.996Z,13.50
2018-09-26T09:52:27.525Z,13.60
2018-09-26T09:54:55.085Z,13.70
2018-09-26T09:57:22.613Z,13.60
2018-09-26T09:59:50.181Z,13.80
2018-09-26T10:02:17.735Z,14.00
2018-09-26T10:04:46.069Z,14.30
2018-09-26T10:07:13.592Z,14.30
2018-09-26T10:09:43.092Z,14.00
2018-09-26T10:12:10.621Z,14.10
2018-09-26T10:14:40.908Z,14.20
2018-09-26T10:17:08.438Z,14.10
2018-09-26T10:19:35.997Z,14.50
2018-09-26T10:22:03.532Z,14.70
2018-09-26T10:24:31.097Z,14.90
2018-09-26T10:26:58.658Z,15.00
2018-09-26T10:29:26.182Z,14.80
2018-09-26T10:31:54.509Z,15.20
2018-09-26T10:34:22.033Z,15.20
2018-09-26T10:36:49.592Z,15.40
2018-09-26T10:39:17.121Z,15.50
2018-09-26T10:41:44.681Z,15.70
2018-09-26T10:44:13.040Z,15.70
2018-09-26T10:46:41.597Z,15.60
2018-09-26T10:49:09.075Z,15.80
2018-09-26T10:51:36.645Z,15.90
2018-09-26T10:54:04.172Z,16.00
2018-09-26T10:56:31.843Z,16.10
2018-09-26T10:58:59.291Z,16.20
2018-09-26T11:01:27.815Z,16.30
2018-09-26T11:03:55.349Z,16.00
2018-09-26T11:06:22.913Z,16.10
2018-09-26T11:08:50.685Z,15.90
2018-09-26T11:11:19.024Z,16.70
2018-09-26T11:13:46.555Z,16.70
2018-09-26T11:16:14.118Z,16.60
2018-09-26T11:18:41.675Z,16.90
2018-09-26T11:21:09.255Z,17.20
2018-09-26T11:23:36.790Z,17.40
2018-09-26T11:26:04.445Z,17.40
2018-09-26T11:28:32.743Z,16.90
2018-09-26T11:31:01.215Z,16.90
2018-09-26T11:33:33.448Z,17.10
2018-09-26T11:36:01.002Z,17.10
2018-09-26T11:38:28.564Z,17.40
2018-09-26T11:40:56.094Z,17.10
2018-09-26T11:43:23.658Z,17.30
2018-09-26T11:45:51.953Z,17.90
2018-09-26T11:48:19.519Z,17.90
2018-09-26T11:50:47.049Z,18.40
2018-09-26T11:53:14.621Z,18.50
2018-09-26T11:55:42.153Z,18.70
2018-09-26T11:58:10.511Z,19.00
2018-09-26T12:00:38.078Z,19.00
2018-09-26T12:03:05.605Z,19.10
2018-09-26T12:05:33.169Z,19.10
2018-09-26T12:08:00.705Z,19.10
2018-09-26T12:10:28.349Z,18.80
2018-09-26T12:12:55.878Z,19.10
2018-09-26T12:15:24.209Z,19.30
2018-09-26T12:17:51.742Z,19.20
2018-09-26T12:20:19.313Z,19.00
2018-09-26T12:22:46.842Z,19.40
2018-09-26T12:25:14.389Z,19.90
2018-09-26T12:27:42.014Z,20.00
2018-09-26T12:30:09.591Z,20.00
2018-09-26T12:32:37.096Z,19.80
2018-09-26T12:35:04.681Z,20.20
2018-09-26T12:37:34.241Z,20.40
2018-09-26T12:40:01.797Z,20.70
2018-09-26T12:42:30.288Z,20.40
2018-09-26T12:44:57.943Z,20.30
2018-09-26T12:47:25.625Z,20.50
2018-09-26T12:49:53.088Z,20.20
2018-09-26T12:52:20.681Z,19.60
2018-09-26T12:54:48.212Z,19.80
2018-09-26T12:57:15.740Z,20.00
2018-09-26T12:59:43.311Z,20.60
2018-09-26T13:02:10.844Z,20.70
2018-09-26T13:04:38.384Z,20.70
2018-09-26T13:07:05.948Z,20.10
2018-09-26T13:09:33.502Z,20.00
2018-09-26T13:12:01.085Z,20.20
2018-09-26T13:14:28.658Z,20.10
2018-09-26T13:16:56.193Z,19.80
2018-09-26T13:19:23.724Z,20.10
2018-09-26T13:21:52.273Z,20.20
2018-09-26T13:24:19.840Z,20.60
2018-09-26T13:26:48.365Z,21.30
2018-09-26T13:29:15.893Z,20.60
2018-09-26T13:31:43.461Z,20.50
2018-09-26T13:34:11.978Z,20.80
2018-09-26T13:36:39.555Z,21.10
2018-09-26T13:39:07.136Z,21.30
2018-09-26T13:41:35.680Z,21.70
2018-09-26T13:44:03.204Z,21.60
2018-09-26T13:46:30.791Z,22.20
2018-09-26T13:48:58.313Z,22.60
2018-09-26T13:51:25.876Z,22.30
2018-09-26T13:53:53.447Z,22.20
2018-09-26T13:56:21.028Z,22.20
2018-09-26T13:58:48.554Z,22.40
2018-09-26T14:01:16.124Z,22.50
2018-09-26T14:03:43.653Z,22.70
2018-09-26T14:06:11.219Z,22.40
2018-09-26T14:08:38.779Z,22.20
2018-09-26T14:11:06.384Z,22.70
2018-09-26T14:13:35.716Z,22.90
2018-09-26T14:16:03.317Z,22.90
2018-09-26T14:18:30.845Z,22.80
2018-09-26T14:20:58.409Z,22.70
2018-09-26T14:23:25.949Z,22.90
2018-09-26T14:25:54.466Z,22.70
2018-09-26T14:28:22.125Z,23.10
2018-09-26T14:30:49.747Z,22.90
2018-09-26T14:33:17.444Z,23.30
2018-09-26T14:35:44.978Z,23.90
2018-09-26T14:38:12.568Z,24.40
2018-09-26T14:40:40.093Z,24.50
2018-09-26T14:43:09.628Z,24.80
2018-09-26T14:45:38.228Z,24.70
2018-09-26T14:48:05.718Z,25.00
2018-09-26T14:50:34.218Z,25.10
2018-09-26T14:53:01.777Z,25.20
2018-09-26T14:55:29.305Z,25.40
2018-09-26T14:57:56.916Z,25.60
2018-09-26T15:00:24.435Z,24.90
2018-09-26T15:02:52.008Z,24.80
2018-09-26T15:05:19.539Z,25.20
2018-09-26T15:07:47.107Z,25.20
2018-09-26T15:10:14.703Z,25.10
2018-09-26T15:12:42.218Z,25.10
2018-09-26T15:15:10.726Z,25.50
2018-09-26T15:17:38.345Z,25.70
2018-09-26T15:20:05.946Z,25.70
2018-09-26T15:22:33.457Z,24.90
2018-09-26T15:25:00.985Z,24.00
2018-09-26T15:27:29.325Z,22.30
2018-09-26T15:29:56.859Z,22.20
2018-09-26T15:32:24.462Z,22.00
2018-09-26T15:34:51.972Z,21.70
2018-09-26T15:37:19.533Z,21.40
2018-09-26T15:39:48.028Z,21.40
2018-09-26T15:42:15.633Z,21.20
2018-09-26T15:44:44.105Z,21.10
2018-09-26T15:47:11.662Z,20.90
2018-09-26T15:49:39.208Z,20.90
2018-09-26T15:52:06.772Z,20.70
2018-09-26T15:54:35.086Z,20.40
2018-09-26T15:57:02.755Z,20.40
2018-09-26T15:59:30.289Z,20.30
2018-09-26T16:01:57.856Z,20.20
2018-09-26T16:04:25.464Z,20.00
2018-09-26T16:06:52.968Z,19.80
2018-09-26T16:09:20.530Z,19.60
2018-09-26T16:11:48.067Z,19.50
2018-09-26T16:14:17.632Z,19.40
2018-09-26T16:16:45.129Z,19.30
2018-09-26T16:19:12.688Z,19.00
2018-09-26T16:21:40.257Z,18.80
2018-09-26T16:24:07.849Z,18.60
2018-09-26T16:26:35.377Z,18.50
2018-09-26T16:29:02.942Z,18.20
2018-09-26T16:31:30.479Z,18.10
2018-09-26T16:33:58.045Z,18.00
2018-09-26T16:36:25.669Z,17.90
2018-09-26T16:38:53.161Z,17.70
2018-09-26T16:41:20.701Z,17.60
2018-09-26T16:43:49.028Z,17.30
2018-09-26T16:46:16.581Z,17.30
2018-09-26T16:48:44.152Z,17.20
2018-09-26T16:51:11.710Z,17.10
2018-09-26T16:53:39.274Z,16.90
2018-09-26T16:56:07.867Z,16.70
2018-09-26T16:58:35.420Z,16.60
2018-09-26T17:01:03.923Z,16.60
2018-09-26T17:03:31.479Z,16.40
2018-09-26T17:05:59.804Z,16.40
2018-09-26T17:08:27.365Z,16.30
2018-09-26T17:10:54.898Z,16.20
2018-09-26T17:13:22.460Z,16.10
2018-09-26T17:15:50.338Z,16.00
2018-09-26T17:18:17.909Z,15.90
2018-09-26T17:20:45.446Z,15.80
2018-09-26T17:23:14.936Z,15.60
2018-09-26T17:25:42.513Z,15.40
2018-09-26T17:28:10.086Z,15.40
2018-09-26T17:30:37.625Z,15.20
2018-09-26T17:33:06.264Z,15.10
2018-09-26T17:35:33.837Z,15.00
2018-09-26T17:38:01.405Z,14.90
2018-09-26T17:40:29.478Z,14.70
2018-09-26T17:42:58.161Z,14.60
2018-09-26T17:45:26.674Z,14.50
2018-09-26T17:47:54.250Z,14.40
2018-09-26T17:50:22.581Z,14.30
2018-09-26T17:52:50.161Z,14.20
2018-09-26T17:55:17.893Z,14.20
2018-09-26T17:57:46.401Z,14.10
2018-09-26T18:00:14.018Z,14.00
2018-09-26T18:02:41.694Z,13.90
2018-09-26T18:05:09.308Z,13.70
2018-09-26T18:07:37.609Z,13.50
2018-09-26T18:10:05.165Z,13.40
2018-09-26T18:12:32.693Z,13.40
2018-09-26T18:15:01.205Z,13.40
2018-09-26T18:17:28.797Z,13.30
2018-09-26T18:19:56.331Z,13.20
2018-09-26T18:22:23.870Z,13.20
2018-09-26T18:24:51.432Z,13.20
2018-09-26T18:27:19.950Z,13.10
2018-09-26T18:29:47.502Z,13.00
2018-09-26T18:32:15.976Z,13.00
2018-09-26T18:34:43.585Z,12.90
2018-09-26T18:37:11.915Z,12.60
2018-09-26T18:39:39.482Z,12.60
2018-09-26T18:42:07.015Z,12.60
2018-09-26T18:44:34.581Z,12.50
2018-09-26T18:47:03.118Z,12.40
2018-09-26T18:49:30.805Z,12.30
2018-09-26T18:51:58.340Z,12.10
2018-09-26T18:54:25.901Z,12.10
2018-09-26T18:56:54.458Z,11.90
2018-09-26T18:59:22.129Z,11.80
2018-09-26T19:01:50.538Z,11.70
2018-09-26T19:04:18.118Z,11.60
2018-09-26T19:06:45.698Z,11.70
2018-09-26T19:09:13.243Z,11.60
2018-09-26T19:11:40.813Z,11.60
2018-09-26T19:14:08.393Z,11.60
2018-09-26T19:16:36.728Z,11.60
2018-09-26T19:19:04.297Z,11.60
2018-09-26T19:21:31.932Z,11.50
2018-09-26T19:23:59.450Z,11.50
2018-09-26T19:26:26.985Z,11.50
2018-09-26T19:28:55.313Z,11.40
2018-09-26T19:31:22.897Z,11.40
2018-09-26T19:33:50.433Z,11.30
2018-09-26T19:36:18.988Z,11.10
2018-09-26T19:38:46.505Z,11.00
2018-09-26T19:41:14.075Z,10.90
2018-09-26T19:43:42.405Z,10.90
2018-09-26T19:46:09.942Z,10.90
2018-09-26T19:48:37.471Z,10.80
2018-09-26T19:51:05.070Z,10.80
2018-09-26T19:53:32.593Z,10.80
2018-09-26T19:56:00.217Z,10.60
2018-09-26T19:58:27.728Z,10.60
2018-09-26T20:00:55.297Z,10.60
2018-09-26T20:03:22.858Z,10.70
2018-09-26T20:05:50.407Z,10.70
2018-09-26T20:08:19.930Z,10.70
2018-09-26T20:10:49.442Z,10.60
2018-09-26T20:13:17.028Z,10.70
2018-09-26T20:15:45.328Z,10.60
2018-09-26T20:18:12.916Z,10.60
2018-09-26T20:20:40.482Z,10.60
2018-09-26T20:23:08.119Z,10.60
2018-09-26T20:25:35.610Z,10.60
2018-09-26T20:28:03.173Z,10.40
2018-09-26T20:30:30.740Z,10.40
2018-09-26T20:32:58.353Z,10.50
2018-09-26T20:35:25.861Z,10.40
2018-09-26T20:37:53.425Z,10.30
2018-09-26T20:40:20.989Z,10.20
2018-09-26T20:42:49.315Z,10.10
2018-09-26T20:45:16.854Z,10.10
2018-09-26T20:47:44.428Z,10.10
2018-09-26T20:50:11.953Z,10.00
2018-09-26T20:52:39.526Z,9.90
2018-09-26T20:55:07.069Z,9.90
2018-09-26T20:57:34.601Z,9.80
2018-09-26T21:00:02.161Z,9.80
2018-09-26T21:02:30.598Z,9.70
2018-09-26T21:04:58.167Z,9.70
2018-09-26T21:07:25.692Z,9.70
2018-09-26T21:09:54.206Z,9.70
2018-09-26T21:12:23.705Z,9.70
2018-09-26T21:14:51.261Z,9.70
2018-09-26T21:17:18.861Z,9.70
2018-09-26T21:19:46.389Z,9.60
2018-09-26T21:22:13.945Z,9.50
2018-09-26T21:24:41.509Z,9.50
2018-09-26T21:27:09.037Z,9.50
2018-09-26T21:29:36.557Z,9.40
2018-09-26T21:32:06.053Z,9.50
2018-09-26T21:34:33.577Z,9.50
2018-09-26T21:37:01.146Z,9.40
2018-09-26T21:39:28.705Z,9.40
2018-09-26T21:41:56.241Z,9.40
2018-09-26T21:44:23.807Z,9.40
2018-09-26T21:46:51.360Z,9.40
2018-09-26T21:49:18.941Z,9.40
2018-09-26T21:51:46.473Z,9.40
2018-09-26T21:54:14.033Z,9.30
2018-09-26T21:56:41.592Z,9.40
2018-09-26T21:59:09.164Z,9.30
2018-09-26T22:01:36.690Z,9.30
2018-09-26T22:04:04.245Z,9.20
2018-09-26T22:06:31.808Z,9.30
2018-09-26T22:08:59.373Z,9.30
2018-09-26T22:11:26.898Z,9.30
2018-09-26T22:13:54.426Z,9.30
2018-09-26T22:16:21.986Z,9.30
2018-09-26T22:18:49.568Z,9.30
2018-09-26T22:21:17.153Z,9.30
2018-09-26T22:23:44.709Z,9.20
2018-09-26T22:26:12.238Z,9.20
2018-09-26T22:28:39.796Z,9.10
2018-09-26T22:31:07.441Z,9.10
2018-09-26T22:33:34.964Z,9.10
2018-09-26T22:36:04.225Z,9.00
2018-09-26T22:38:31.785Z,9.00
2018-09-26T22:40:59.340Z,9.00
2018-09-26T22:43:26.893Z,9.00
2018-09-26T22:45:54.416Z,8.90
2018-09-26T22:48:21.969Z,8.80
2018-09-26T22:50:49.529Z,8.90
2018-09-26T22:53:17.083Z,8.90
2018-09-26T22:55:44.613Z,8.90
2018-09-26T22:58:12.221Z,8.90
2018-09-26T23:00:39.755Z,8.90
2018-09-26T23:03:07.323Z,8.80
2018-09-26T23:05:34.844Z,8.80
2018-09-26T23:08:02.405Z,8.80
2018-09-26T23:10:30.700Z,8.80
2018-09-26T23:12:58.257Z,8.80
2018-09-26T23:15:25.788Z,8.70
2018-09-26T23:17:53.346Z,8.70
2018-09-26T23:20:20.869Z,8.70
2018-09-26T23:22:48.428Z,8.70
2018-09-26T23:25:16.069Z,8.70
2018-09-26T23:27:43.625Z,8.60
2018-09-26T23:30:11.154Z,8.60
2018-09-26T23:32:38.869Z,8.60
2018-09-26T23:35:06.405Z,8.50
2018-09-26T23:37:34.121Z,8.50
2018-09-26T23:40:01.664Z,8.30
2018-09-26T23:42:29.220Z,8.30
2018-09-26T23:44:57.549Z,8.40
2018-09-26T23:47:25.072Z,8.30
2018-09-26T23:49:53.589Z,8.40
2018-09-26T23:52:21.148Z,8.40
2018-09-26T23:54:48.705Z,8.40
2018-09-26T23:57:16.237Z,8.30
2018-09-26T23:59:43.795Z,8.30
